Time;durP1;ratioP1;P1;durP2;ratioP2;P2;SDS_P1;SDS_P2;PMS_P1;PMS_P2;Temp;Humidity;BMP_temperature;BMP_pressure;BME280_temperature;BME280_humidity;BME280_pressure;Samples;Min_cycle;Max_cycle;Signal;HPM_P1;HPM_P2
2023/01/27 08:11:12;;;;;;;22.70;9.43;;;;;;;-2.43;100.00;99457.59;5109734;27;20384;-78
2023/01/27 08:13:39;;;;;;;20.38;9.35;;;;;;;-2.40;100.00;99444.09;5099855;28;20054;-79
2023/01/27 08:16:08;;;;;;;21.27;8.23;;;;;;;-2.31;100.00;99443.50;5108441;28;20416;-79
2023/01/27 08:18:35;;;;;;;18.53;10.53;;;;;;;-2.17;100.00;99450.63;5109000;28;20052;-79
2023/01/27 08:21:04;;;;;;;26.95;12.20;;;;;;;-2.13;100.00;99463.63;5103356;28;20484;-79
2023/01/27 08:23:31;;;;;;;21.45;9.18;;;;;;;-1.93;100.00;99477.50;5087834;28;20062;-79
2023/01/27 08:26:00;;;;;;;21.80;10.00;;;;;;;-1.92;100.00;99468.56;5088732;28;20517;-79
2023/01/27 08:28:29;;;;;;;20.92;11.13;;;;;;;-1.93;100.00;99444.69;5088139;28;20056;-79
2023/01/27 08:31:04;;;;;;;27.58;10.50;;;;;;;-1.83;100.00;99475.13;5099239;28;20051;-79
2023/01/27 08:33:30;;;;;;;21.88;10.30;;;;;;;-1.93;100.00;99455.34;5098802;28;20170;-79
2023/01/27 08:36:01;;;;;;;20.95;8.65;;;;;;;-1.83;100.00;99473.31;5097288;28;20059;-79
2023/01/27 08:38:28;;;;;;;20.83;8.90;;;;;;;-1.82;100.00;99467.03;5100828;28;20046;-79
2023/01/27 08:40:54;;;;;;;16.38;7.95;;;;;;;-1.67;100.00;99480.31;5101827;28;20062;-79
2023/01/27 08:43:21;;;;;;;18.33;8.07;;;;;;;-1.69;100.00;99463.56;5098665;28;20054;-78
2023/01/27 08:45:51;;;;;;;14.25;7.70;;;;;;;-1.55;100.00;99487.53;5100299;28;20139;-79
2023/01/27 08:48:18;;;;;;;17.58;8.32;;;;;;;-1.67;100.00;99461.63;5100476;28;20060;-79
2023/01/27 08:50:44;;;;;;;17.77;9.13;;;;;;;-1.63;100.00;99464.00;5097628;28;20048;-78
2023/01/27 08:53:11;;;;;;;15.50;7.10;;;;;;;-1.54;100.00;99491.03;5097286;28;20356;-79
2023/01/27 08:55:38;;;;;;;17.77;7.85;;;;;;;-1.60;100.00;99470.97;5102975;28;20065;-78
2023/01/27 08:58:04;;;;;;;19.70;8.32;;;;;;;-1.51;100.00;99485.50;5102218;28;20055;-79
2023/01/27 09:00:33;;;;;;;18.75;8.18;;;;;;;-1.59;100.00;99463.84;5101216;28;20060;-79
2023/01/27 09:03:01;;;;;;;18.35;8.35;;;;;;;-1.38;100.00;99499.75;5095703;28;20135;-79
2023/01/27 09:05:27;;;;;;;17.27;8.00;;;;;;;-1.44;100.00;99477.00;5102271;28;20059;-79
2023/01/27 09:07:54;;;;;;;14.43;7.22;;;;;;;-1.14;100.00;99489.28;5098876;28;20056;-79
2023/01/27 09:10:20;;;;;;;15.90;7.68;;;;;;;-1.31;100.00;99484.19;5096340;28;20055;-79
2023/01/27 09:12:47;;;;;;;37.45;16.60;;;;;;;-1.33;100.00;99454.09;5101493;28;20054;-79
2023/01/27 09:15:14;;;;;;;17.30;9.07;;;;;;;-1.03;100.00;99498.38;5099079;28;20137;-79
2023/01/27 09:17:41;;;;;;;22.67;8.18;;;;;;;-0.96;100.00;99479.16;5101131;28;20052;-79
2023/01/27 09:20:10;;;;;;;20.58;10.35;;;;;;;-1.12;98.93;99462.47;5096671;28;20043;-80
2023/01/27 09:22:39;;;;;;;21.50;12.32;;;;;;;-1.01;100.00;99481.31;5086248;28;20063;-79
2023/01/27 09:25:07;;;;;;;17.40;9.82;;;;;;;-0.96;100.00;99478.31;5086972;28;20040;-79
2023/01/27 09:27:34;;;;;;;13.73;7.07;;;;;;;-1.01;99.85;99488.44;5087531;28;20044;-79
2023/01/27 09:30:00;;;;;;;14.52;8.02;;;;;;;-0.96;97.23;99473.84;5088985;28;20040;-79
2023/01/27 09:32:27;;;;;;;15.20;6.07;;;;;;;-1.11;97.98;99475.72;5087909;28;20142;-79
2023/01/27 09:34:53;;;;;;;15.48;7.70;;;;;;;-1.11;96.07;99461.53;5083641;28;20555;-79
2023/01/27 09:37:22;;;;;;;13.77;5.88;;;;;;;-0.84;95.34;99497.97;5084819;28;20056;-79
2023/01/27 09:39:53;;;;;;;14.05;6.72;;;;;;;-0.99;96.04;99483.88;5074601;28;20129;-79
2023/01/27 09:42:39;;;;;;;10.13;5.30;;;;;;;-1.05;95.01;99468.25;5086278;28;20051;-79
2023/01/27 09:45:34;;;;;;;10.25;5.75;;;;;;;-0.70;93.92;99507.72;5083756;28;20566;-79
2023/01/27 09:48:20;;;;;;;18.08;14.57;;;;;;;-1.00;95.85;99466.97;5087808;28;20078;-79
2023/01/27 09:50:55;;;;;;;12.93;5.95;;;;;;;-0.83;95.25;99471.16;5086009;28;20051;-79
2023/01/27 09:53:47;;;;;;;32.08;13.82;;;;;;;-0.87;93.98;99480.38;5085692;28;20060;-79
2023/01/27 09:56:20;;;;;;;13.10;6.90;;;;;;;-1.08;96.06;99472.84;5084066;28;20059;-79
2023/01/27 09:59:04;;;;;;;9.68;4.43;;;;;;;-1.12;98.44;99497.16;5085584;28;20047;-79
2023/01/27 10:01:40;;;;;;;12.80;6.32;;;;;;;-1.18;99.73;99482.41;5085608;28;20047;-79
2023/01/27 10:04:31;;;;;;;12.15;6.15;;;;;;;-1.04;100.00;99475.31;5084847;28;20044;-78
2023/01/27 10:07:22;;;;;;;15.10;5.63;;;;;;;-0.89;99.20;99498.28;5075764;28;20517;-79
2023/01/27 10:10:11;;;;;;;12.05;6.03;;;;;;;-1.08;98.48;99472.00;5086398;28;20052;-79
2023/01/27 10:12:58;;;;;;;14.27;6.38;;;;;;;-0.83;97.48;99486.34;5086384;28;20048;-79
2023/01/27 10:15:38;;;;;;;15.07;8.32;;;;;;;-0.71;98.58;99501.50;5082819;28;20138;-79
2023/01/27 10:18:13;;;;;;;15.73;6.30;;;;;;;-1.03;100.00;99482.38;5080639;28;20055;-79
2023/01/27 10:20:46;;;;;;;20.15;8.35;;;;;;;-0.82;100.00;99494.25;5081738;28;20407;-79
2023/01/27 10:23:25;;;;;;;21.80;13.52;;;;;;;-0.90;100.00;99472.56;5084981;28;20483;-79
2023/01/27 10:26:03;;;;;;;16.05;8.63;;;;;;;-0.91;100.00;99489.53;5087217;28;20444;-80
2023/01/27 10:28:31;;;;;;;21.98;15.68;;;;;;;-0.95;100.00;99488.91;5084974;28;20047;-80
2023/01/27 10:31:00;;;;;;;19.08;7.75;;;;;;;-0.71;100.00;99512.19;5081416;28;20396;-81
2023/01/27 10:33:42;;;;;;;28.52;16.13;;;;;;;-0.86;100.00;99499.91;5083922;28;20495;-81
2023/01/27 10:36:18;;;;;;;16.60;7.95;;;;;;;-0.88;100.00;99472.47;5093905;28;20048;-81
2023/01/27 10:38:49;;;;;;;23.55;12.38;;;;;;;-0.92;100.00;99483.34;5093532;28;20135;-80
2023/01/27 10:41:29;;;;;;;19.45;7.70;;;;;;;-0.79;100.00;99499.38;5092704;28;20044;-81
2023/01/27 10:44:14;;;;;;;16.63;8.80;;;;;;;-0.81;100.00;99485.28;5088937;28;20392;-80
2023/01/27 10:46:49;;;;;;;17.88;9.23;;;;;;;-0.62;100.00;99497.38;5088424;28;20486;-81
2023/01/27 10:49:23;;;;;;;18.02;10.02;;;;;;;-0.91;100.00;99468.19;5075040;28;20503;-80
2023/01/27 10:51:54;;;;;;;35.28;21.08;;;;;;;-0.82;100.00;99507.59;5092196;28;20372;-80
2023/01/27 10:54:26;;;;;;;19.55;9.48;;;;;;;-0.91;100.00;99479.69;5091714;28;20410;-81
2023/01/27 10:56:58;;;;;;;21.17;9.70;;;;;;;-0.95;100.00;99478.22;5092404;28;20079;-81
2023/01/27 10:59:33;;;;;;;15.80;8.73;;;;;;;-0.72;100.00;99497.16;5092401;28;20052;-81
2023/01/27 11:02:03;;;;;;;14.20;7.35;;;;;;;-0.81;100.00;99490.63;5092294;28;20396;-81
2023/01/27 11:04:37;;;;;;;18.95;7.68;;;;;;;-0.85;100.00;99486.44;5083403;28;20044;-81
2023/01/27 11:07:05;;;;;;;29.77;13.27;;;;;;;-0.64;100.00;99500.13;5090291;28;20078;-81
2023/01/27 11:09:35;;;;;;;29.42;11.65;;;;;;;-0.67;100.00;99511.03;5088935;28;20138;-81
2023/01/27 11:12:09;;;;;;;19.48;9.05;;;;;;;-0.73;100.00;99488.28;5092326;28;20084;-81
2023/01/27 11:14:44;;;;;;;18.00;8.82;;;;;;;-0.62;100.00;99500.03;5092139;28;20052;-81
2023/01/27 11:17:17;;;;;;;16.80;7.55;;;;;;;-0.76;100.00;99483.13;5091675;28;20414;-81
2023/01/27 11:19:52;;;;;;;18.15;8.32;;;;;;;-0.80;100.00;99475.44;5091908;28;20432;-81
2023/01/27 11:22:23;;;;;;;22.35;8.50;;;;;;;-0.66;100.00;99491.41;5080844;28;20052;-81
2023/01/27 11:24:59;;;;;;;16.75;7.65;;;;;;;-0.71;100.00;99477.47;5087019;28;20044;-81
2023/01/27 11:27:41;;;;;;;17.27;9.23;;;;;;;-0.80;100.00;99480.78;5091981;28;20058;-81
2023/01/27 11:30:14;;;;;;;17.38;8.25;;;;;;;-0.76;100.00;99488.47;5091497;28;20048;-81
2023/01/27 11:32:52;;;;;;;20.13;9.35;;;;;;;-0.67;100.00;99504.84;5079612;28;20048;-81
2023/01/27 11:35:19;;;;;;;16.65;8.40;;;;;;;-0.66;100.00;99502.06;5091477;28;20070;-81
2023/01/27 11:37:48;;;;;;;15.70;8.13;;;;;;;-0.69;100.00;99498.75;5090527;28;20051;-80
2023/01/27 11:40:19;;;;;;;19.02;7.68;;;;;;;-0.88;100.00;99492.00;5089704;28;20052;-81
2023/01/27 11:42:47;;;;;;;20.58;9.10;;;;;;;-0.80;100.00;99491.47;5090810;28;20403;-81
2023/01/27 11:45:16;;;;;;;22.63;9.05;;;;;;;-0.97;100.00;99492.63;5089311;28;20056;-81
2023/01/27 11:47:44;;;;;;;13.48;7.65;;;;;;;-0.85;100.00;99490.94;5083950;28;20040;-81
2023/01/27 11:50:15;;;;;;;28.00;7.40;;;;;;;-0.89;100.00;99487.59;5091257;28;20221;-81
2023/01/27 11:52:43;;;;;;;17.50;8.38;;;;;;;-0.93;100.00;99472.78;5091057;28;20286;-81
2023/01/27 11:55:23;;;;;;;17.67;9.18;;;;;;;-0.78;100.00;99487.75;5089832;28;20070;-81
2023/01/27 11:57:56;;;;;;;15.77;6.90;;;;;;;-0.81;100.00;99487.06;5090756;28;20069;-80
2023/01/27 12:00:26;;;;;;;17.45;8.95;;;;;;;-0.95;100.00;99453.31;5091526;28;20044;-81
2023/01/27 12:02:55;;;;;;;;;;;;;;;-0.75;100.00;99490.19;5089546;28;20047;-81
2023/01/27 12:05:29;;;;;;;9.18;5.30;;;;;;;-1.01;100.00;99473.31;5091146;28;19923;-81
2023/01/27 12:07:59;;;;;;;21.10;7.85;;;;;;;-1.00;100.00;99447.47;5091630;28;20435;-81
2023/01/27 12:10:30;;;;;;;16.02;8.05;;;;;;;-0.73;100.00;99466.91;5091092;28;20044;-81
2023/01/27 12:13:01;;;;;;;12.68;6.68;;;;;;;-0.65;100.00;99469.03;5085351;28;20052;-81
2023/01/27 12:15:29;;;;;;;16.35;8.23;;;;;;;-0.76;100.00;99453.78;5087483;28;20345;-81
2023/01/27 12:17:59;;;;;;;8.88;5.93;;;;;;;-0.73;100.00;99458.91;5087976;28;20054;-81
2023/01/27 12:20:32;;;;;;;;;;;;;;;-0.70;100.00;99467.69;5090018;28;20396;-80
2023/01/27 12:23:03;;;;;;;15.50;6.57;;;;;;;-0.74;100.00;99459.88;5090566;28;19923;-81
2023/01/27 12:25:40;;;;;;;12.30;6.95;;;;;;;-0.80;100.00;99438.94;5091347;28;20083;-80
2023/01/27 12:28:23;;;;;;;13.40;6.68;;;;;;;-0.68;100.00;99452.41;5089331;28;20139;-81
2023/01/27 12:30:52;;;;;;;13.88;6.38;;;;;;;-0.64;100.00;99435.22;5087472;28;24075;-81
2023/01/27 12:33:24;;;;;;;14.27;7.43;;;;;;;-0.67;100.00;99446.09;5085315;28;20087;-81
2023/01/27 12:35:52;;;;;;;17.55;6.85;;;;;;;-0.81;100.00;99434.56;5090799;28;20546;-81
2023/01/27 12:38:21;;;;;;;16.27;6.20;;;;;;;-0.63;100.00;99448.44;5091152;28;20044;-81
2023/01/27 12:40:50;;;;;;;11.38;6.15;;;;;;;-0.72;100.00;99425.91;5090950;28;20051;-81
2023/01/27 12:43:19;;;;;;;15.60;6.70;;;;;;;-0.75;100.00;99434.13;5088592;28;20083;-81
2023/01/27 12:46:03;;;;;;;17.40;8.25;;;;;;;-0.65;100.00;99458.38;5086892;28;20043;-81
2023/01/27 12:48:32;;;;;;;10.23;6.13;;;;;;;-0.81;100.00;99452.38;5086718;28;20117;-81
2023/01/27 12:51:06;;;;;;;10.73;4.82;;;;;;;-0.95;100.00;99459.53;5089349;28;20498;-81
2023/01/27 12:53:32;;;;;;;14.20;7.05;;;;;;;-0.99;100.00;99447.34;5090266;28;20048;-81
2023/01/27 12:56:04;;;;;;;13.07;6.55;;;;;;;-1.00;100.00;99450.13;5091432;28;20052;-81
2023/01/27 12:58:35;;;;;;;12.27;6.50;;;;;;;-0.89;100.00;99466.25;5094585;28;20052;-81
2023/01/27 13:01:05;;;;;;;14.18;6.95;;;;;;;-1.00;100.00;99447.47;5089760;28;20135;-81
2023/01/27 13:03:37;;;;;;;11.52;5.97;;;;;;;-1.09;100.00;99435.59;5094179;28;20055;-81
2023/01/27 13:06:05;;;;;;;9.32;4.75;;;;;;;-1.03;100.00;99445.84;5092797;28;20520;-81
2023/01/27 13:08:33;;;;;;;17.38;7.10;;;;;;;-0.89;100.00;99458.25;5094346;28;20487;-81
2023/01/27 13:11:03;;;;;;;16.80;8.30;;;;;;;-0.66;100.00;99461.16;5094424;28;20078;-80
2023/01/27 13:13:31;;;;;;;14.90;7.47;;;;;;;-0.79;100.00;99434.47;5093972;28;20056;-81
2023/01/27 13:16:05;;;;;;;13.38;6.20;;;;;;;-0.66;99.88;99461.16;5090913;28;20048;-81
2023/01/27 13:18:35;;;;;;;14.48;6.70;;;;;;;-0.75;100.00;99465.31;5092345;28;20044;-81
2023/01/27 13:21:13;;;;;;;14.90;6.38;;;;;;;-0.66;100.00;99470.03;5092276;28;20086;-80
2023/01/27 13:23:41;;;;;;;11.85;6.95;;;;;;;-0.63;100.00;99469.81;5092205;28;20395;-81
2023/01/27 13:26:14;;;;;;;16.95;8.50;;;;;;;-0.75;100.00;99450.16;5093869;28;20044;-81
2023/01/27 13:28:46;;;;;;;14.48;7.25;;;;;;;-0.68;99.71;99461.25;5094419;28;20047;-81
2023/01/27 13:31:19;;;;;;;14.43;7.35;;;;;;;-0.68;98.95;99465.75;5088246;28;20048;-81
2023/01/27 13:33:50;;;;;;;14.40;6.68;;;;;;;-0.90;99.01;99437.88;5093234;28;20083;-81
2023/01/27 13:36:28;;;;;;;16.13;8.00;;;;;;;-0.79;99.52;99456.66;5093172;28;20040;-81
2023/01/27 13:39:00;;;;;;;15.27;8.20;;;;;;;-0.69;99.01;99456.88;5092573;28;20052;-81
2023/01/27 13:41:32;;;;;;;17.67;7.80;;;;;;;-0.57;98.75;99468.53;5089829;28;20047;-81
2023/01/27 13:44:05;;;;;;;14.93;7.40;;;;;;;-0.53;99.42;99480.69;5071375;28;20128;-81
2023/01/27 13:46:38;;;;;;;14.65;6.85;;;;;;;-0.70;100.00;99462.34;5082273;28;20055;-81
2023/01/27 13:49:15;;;;;;;15.18;7.20;;;;;;;-0.83;100.00;99452.47;5093756;28;20078;-81
2023/01/27 13:51:42;;;;;;;14.45;7.03;;;;;;;-0.69;100.00;99488.06;5091989;28;20051;-81
2023/01/27 13:54:14;;;;;;;20.65;10.45;;;;;;;-0.87;100.00;99451.00;5092745;28;20510;-81
2023/01/27 13:56:53;;;;;;;15.10;7.68;;;;;;;-0.79;100.00;99462.00;5088603;28;20055;-81
2023/01/27 13:59:38;;;;;;;5.70;3.00;;;;;;;-0.98;100.00;99464.22;5093370;28;20063;-81
2023/01/27 14:02:26;;;;;;;12.55;6.97;;;;;;;-0.77;100.00;99483.25;5085868;28;20056;-81
2023/01/27 14:05:08;;;;;;;15.45;7.72;;;;;;;-0.64;100.00;99496.63;5093423;28;20052;-81
2023/01/27 14:07:43;;;;;;;14.95;8.10;;;;;;;-0.55;100.00;99494.16;5093269;28;20554;-81
2023/01/27 14:10:24;;;;;;;15.38;6.53;;;;;;;-0.63;100.00;99480.50;5075672;28;20134;-81
2023/01/27 14:13:06;;;;;;;12.35;6.25;;;;;;;-0.56;100.00;99516.50;5074706;28;20135;-81
2023/01/27 14:15:40;;;;;;;11.65;6.13;;;;;;;-0.73;100.00;99488.28;5086999;28;20075;-81
2023/01/27 14:18:16;;;;;;;11.80;6.30;;;;;;;-0.72;100.00;99491.81;5093222;28;20048;-81
2023/01/27 14:21:02;;;;;;;13.23;6.28;;;;;;;-0.61;99.65;99485.72;5093394;28;20052;-81
2023/01/27 14:23:44;;;;;;;9.02;5.40;;;;;;;-0.69;97.99;99464.91;5092576;28;20074;-81
2023/01/27 14:26:22;;;;;;;8.25;5.05;;;;;;;-0.52;99.10;99505.63;5082844;28;20131;-81
2023/01/27 14:29:02;;;;;;;11.38;6.22;;;;;;;-0.54;99.61;99493.22;5075224;28;20089;-81
2023/01/27 14:31:42;;;;;;;17.75;10.55;;;;;;;-0.71;100.00;99469.47;5090549;28;20487;-81
2023/01/27 14:34:35;;;;;;;19.17;11.05;;;;;;;-0.68;100.00;99484.44;5092095;28;20387;-85
2023/01/27 14:37:14;;;;;;;12.52;7.00;;;;;;;-0.79;100.00;99479.84;5092647;28;20101;-79
2023/01/27 14:39:51;;;;;;;14.35;6.32;;;;;;;-0.76;100.00;99469.78;5092624;28;20498;-79
2023/01/27 14:42:27;;;;;;;14.68;6.80;;;;;;;-0.66;100.00;99474.50;5090928;28;20056;-79
2023/01/27 14:45:01;;;;;;;13.68;7.05;;;;;;;-0.62;100.00;99476.00;5071632;28;20048;-79
2023/01/27 14:47:37;;;;;;;9.52;4.90;;;;;;;-0.51;99.05;99505.50;5087560;28;20427;-79
2023/01/27 14:50:19;;;;;;;11.75;5.88;;;;;;;-0.70;100.00;99481.88;5092352;28;20149;-79
2023/01/27 14:52:53;;;;;;;12.18;7.45;;;;;;;-0.45;100.00;99509.53;5091590;28;20050;-79
2023/01/27 14:55:32;;;;;;;10.93;5.38;;;;;;;-0.72;100.00;99479.31;5077895;28;20079;-79
2023/01/27 14:58:12;;;;;;;10.30;5.05;;;;;;;-0.48;99.33;99481.25;5072131;28;20052;-79
2023/01/27 15:00:46;;;;;;;10.65;5.75;;;;;;;-0.45;97.30;99473.03;5081315;28;20388;-79
2023/01/27 15:03:43;;;;;;;12.32;5.50;;;;;;;-0.48;97.85;99488.38;5091509;28;20407;-80
2023/01/27 15:06:19;;;;;;;10.63;5.03;;;;;;;-0.41;98.63;99490.53;5086421;28;20052;-79
2023/01/27 15:08:51;;;;;;;10.23;5.07;;;;;;;-0.50;98.56;99459.13;5091202;28;20048;-79
2023/01/27 15:11:32;;;;;;;10.63;5.32;;;;;;;-0.44;98.55;99487.22;5093217;28;20047;-80
2023/01/27 15:14:19;;;;;;;13.68;5.10;;;;;;;-0.31;97.51;99517.47;5092289;28;20051;-79
2023/01/27 15:17:14;;;;;;;8.05;5.35;;;;;;;-0.51;98.63;99486.81;5090762;28;20052;-79
2023/01/27 15:20:04;;;;;;;9.18;5.10;;;;;;;-0.55;98.91;99485.31;5091700;28;20440;-79
2023/01/27 15:22:53;;;;;;;7.28;4.63;;;;;;;-0.60;99.82;99479.44;5082280;28;20058;-79
2023/01/27 15:25:32;;;;;;;11.75;5.93;;;;;;;-0.38;99.60;99505.50;5087518;28;20054;-79
2023/01/27 15:27:59;;;;;;;7.97;4.43;;;;;;;-0.36;98.92;99507.09;5091799;28;20048;-80
2023/01/27 15:30:33;;;;;;;12.77;5.40;;;;;;;-0.48;99.71;99489.25;5076177;28;20052;-80
2023/01/27 15:33:00;;;;;;;12.52;5.00;;;;;;;-0.58;100.00;99494.38;5075990;28;20083;-79
2023/01/27 15:35:39;;;;;;;7.70;4.55;;;;;;;-0.48;100.00;99496.41;5083024;28;20048;-80
2023/01/27 15:38:33;;;;;;;8.45;4.57;;;;;;;-0.45;100.00;99506.88;5085103;28;20255;-80
2023/01/27 15:41:08;;;;;;;11.07;5.35;;;;;;;-0.46;100.00;99495.34;5066096;28;20052;-79
2023/01/27 15:43:39;;;;;;;10.20;5.07;;;;;;;-0.39;99.18;99510.00;5085470;28;20357;-79
2023/01/27 15:46:33;;;;;;;10.90;5.28;;;;;;;-0.39;99.87;99509.16;5075159;28;20048;-82
2023/01/27 15:49:03;;;;;;;10.52;5.47;;;;;;;-0.29;99.70;99528.06;5077390;28;20056;-80
2023/01/27 15:51:34;;;;;;;12.32;5.55;;;;;;;-0.36;99.80;99514.28;5086082;28;20089;-80
2023/01/27 15:54:03;;;;;;;11.27;5.78;;;;;;;-0.66;100.00;99507.41;5077386;28;20618;-80
2023/01/27 15:56:46;;;;;;;16.55;5.43;;;;;;;-0.75;100.00;99508.03;5082887;28;20044;-80
2023/01/27 15:59:17;;;;;;;9.52;4.95;;;;;;;-0.58;100.00;99523.75;5074691;28;20048;-80
2023/01/27 16:01:44;;;;;;;12.32;5.65;;;;;;;-0.73;100.00;99504.28;5076745;28;20045;-80
2023/01/27 16:04:16;;;;;;;11.15;6.18;;;;;;;-0.49;100.00;99532.09;5073328;28;20063;-80
2023/01/27 16:06:50;;;;;;;9.65;5.93;;;;;;;-0.54;100.00;99535.94;5076956;28;20040;-79
2023/01/27 16:09:34;;;;;;;9.27;5.07;;;;;;;-0.49;100.00;99540.13;5083453;28;20048;-80
2023/01/27 16:12:03;;;;;;;10.82;5.93;;;;;;;-0.63;100.00;99539.25;5081295;28;20044;-80
2023/01/27 16:14:45;;;;;;;8.55;4.90;;;;;;;-0.62;100.00;99556.97;5082958;28;20046;-80
2023/01/27 16:17:32;;;;;;;12.13;5.40;;;;;;;-0.68;100.00;99532.50;5084543;28;20130;-80
2023/01/27 16:20:22;;;;;;;9.52;4.93;;;;;;;-0.60;100.00;99555.06;5071288;28;20052;-79
2023/01/27 16:22:56;;;;;;;10.45;5.97;;;;;;;-0.69;100.00;99541.47;5085565;28;20479;-80
2023/01/27 16:25:30;;;;;;;13.05;6.20;;;;;;;-0.48;100.00;99576.53;5078214;28;20036;-79
2023/01/27 16:28:02;;;;;;;12.68;6.13;;;;;;;-0.46;100.00;99569.28;5085159;28;20503;-79
2023/01/27 16:30:31;;;;;;;12.20;5.40;;;;;;;-0.66;100.00;99557.28;5084807;28;20040;-79
2023/01/27 16:33:07;;;;;;;12.73;6.85;;;;;;;-0.72;100.00;99542.53;5083252;28;20075;-79
2023/01/27 16:35:42;;;;;;;8.45;5.55;;;;;;;-0.55;100.00;99554.75;5073521;28;20052;-79
2023/01/27 16:38:20;;;;;;;8.18;4.97;;;;;;;-0.62;100.00;99540.09;5077875;28;20448;-79
2023/01/27 16:40:53;;;;;;;8.98;5.00;;;;;;;-0.65;100.00;99550.97;5091711;28;20526;-79
2023/01/27 16:43:23;;;;;;;10.77;5.03;;;;;;;-0.55;100.00;99574.28;5085844;28;20051;-79
2023/01/27 16:45:53;;;;;;;9.05;5.20;;;;;;;-0.76;100.00;99539.22;5083288;28;20416;-79
2023/01/27 16:48:28;;;;;;;9.48;4.97;;;;;;;-0.64;100.00;99547.38;5092803;28;20052;-79
2023/01/27 16:51:05;;;;;;;10.07;4.63;;;;;;;-0.66;100.00;99557.28;5079039;28;20047;-79
2023/01/27 16:53:32;;;;;;;9.60;4.85;;;;;;;-0.52;100.00;99578.56;5081958;28;20047;-79
2023/01/27 16:56:03;;;;;;;9.25;5.25;;;;;;;-0.66;100.00;99563.50;5090060;28;20052;-79
2023/01/27 16:58:31;;;;;;;13.27;6.35;;;;;;;-0.65;100.00;99554.50;5082032;28;20480;-79
2023/01/27 17:00:59;;;;;;;14.13;7.60;;;;;;;-0.73;100.00;99541.66;5084499;28;20060;-79
2023/01/27 17:03:32;;;;;;;14.48;6.28;;;;;;;-0.60;100.00;99563.06;5080153;28;20040;-79
2023/01/27 17:06:02;;;;;;;17.48;7.55;;;;;;;-0.70;100.00;99553.13;5086141;28;20052;-79
2023/01/27 17:08:34;;;;;;;19.75;9.23;;;;;;;-0.55;100.00;99573.44;5087355;28;20048;-79
2023/01/27 17:11:17;;;;;;;17.50;6.47;;;;;;;-0.48;100.00;99589.88;5084167;28;20060;-79
2023/01/27 17:13:47;;;;;;;15.77;6.75;;;;;;;-0.61;100.00;99549.81;5071457;28;20049;-79
2023/01/27 17:16:22;;;;;;;13.20;5.80;;;;;;;-0.48;100.00;99577.41;5071157;28;20068;-79
2023/01/27 17:18:48;;;;;;;23.13;7.50;;;;;;;-0.60;100.00;99555.06;5091562;28;20040;-79
2023/01/27 17:21:27;;;;;;;20.48;8.35;;;;;;;-0.63;100.00;99554.38;5083501;28;20040;-80
2023/01/27 17:23:59;;;;;;;24.85;10.02;;;;;;;-0.58;100.00;99565.63;5082172;28;20048;-79
2023/01/27 17:26:27;;;;;;;61.70;22.83;;;;;;;-0.67;100.00;99556.44;5092375;28;20480;-79
2023/01/27 17:28:54;;;;;;;53.03;21.90;;;;;;;-0.63;100.00;99544.59;5086777;28;20392;-79
2023/01/27 17:31:22;;;;;;;30.02;13.90;;;;;;;-0.64;100.00;99548.22;5091346;28;20143;-79
2023/01/27 17:33:52;;;;;;;24.45;11.27;;;;;;;-0.52;100.00;99570.56;5087414;28;20117;-79
2023/01/27 17:36:19;;;;;;;;;;;;;;;-0.46;100.00;99578.16;5083581;28;20048;-79
2023/01/27 17:38:47;;;;;;;23.02;9.60;;;;;;;-0.51;100.00;99571.41;5082200;28;19920;-79
2023/01/27 17:41:34;;;;;;;21.15;8.98;;;;;;;-0.61;100.00;99563.19;5081835;28;20059;-79
2023/01/27 17:44:01;;;;;;;23.35;9.80;;;;;;;-0.42;100.00;99581.47;5084665;28;20048;-79
2023/01/27 17:46:31;;;;;;;11.35;6.43;;;;;;;-0.54;100.00;99572.50;5085656;28;20066;-79
2023/01/27 17:49:00;;;;;;;16.77;7.25;;;;;;;-0.38;100.00;99594.53;5084672;28;20052;-79
2023/01/27 17:51:33;;;;;;;31.93;13.10;;;;;;;-0.37;100.00;99588.19;5080265;28;20082;-79
2023/01/27 17:54:00;;;;;;;37.75;15.48;;;;;;;-0.45;100.00;99593.22;5082437;28;20472;-79
2023/01/27 17:56:30;;;;;;;35.78;17.48;;;;;;;-0.49;100.00;99598.88;5086891;28;20051;-79
2023/01/27 17:59:02;;;;;;;36.28;17.80;;;;;;;-0.50;100.00;99592.66;5075228;28;20450;-79
2023/01/27 18:01:29;;;;;;;34.28;15.95;;;;;;;-0.54;100.00;99588.50;5090030;28;20499;-80
2023/01/27 18:03:57;;;;;;;33.05;15.95;;;;;;;-0.50;100.00;99589.16;5083119;28;20050;-79
2023/01/27 18:06:27;;;;;;;31.08;14.95;;;;;;;-0.60;100.00;99567.56;5086984;28;20050;-79
2023/01/27 18:08:55;;;;;;;25.77;12.27;;;;;;;-0.59;100.00;99566.59;5081422;28;20062;-80
2023/01/27 18:11:34;;;;;;;21.15;10.82;;;;;;;-0.60;100.00;99568.41;5090165;28;20052;-80
2023/01/27 18:14:08;;;;;;;25.02;10.93;;;;;;;-0.58;100.00;99590.53;5081364;28;20089;-80
2023/01/27 18:16:35;;;;;;;20.52;9.80;;;;;;;-0.55;100.00;99592.97;5089219;28;20056;-80
2023/01/27 18:19:17;;;;;;;23.75;11.32;;;;;;;-0.48;100.00;99593.44;5084912;28;20052;-80
2023/01/27 18:21:44;;;;;;;26.10;12.43;;;;;;;-0.59;100.00;99587.94;5088084;28;20101;-80
2023/01/27 18:24:20;;;;;;;22.98;11.68;;;;;;;-0.55;100.00;99590.31;5077533;28;20059;-80
2023/01/27 18:26:49;;;;;;;30.90;12.68;;;;;;;-0.47;100.00;99607.63;5080920;28;20048;-80
2023/01/27 18:29:21;;;;;;;22.52;11.35;;;;;;;-0.63;100.00;99576.63;5085166;28;20048;-80
2023/01/27 18:31:51;;;;;;;24.92;11.95;;;;;;;-0.64;100.00;99584.75;5089183;28;20048;-80
2023/01/27 18:34:25;;;;;;;16.27;9.35;;;;;;;-0.54;100.00;99592.03;5081802;28;20326;-80
2023/01/27 18:36:55;;;;;;;26.08;11.38;;;;;;;-0.49;100.00;99607.75;5087051;28;20047;-80
2023/01/27 18:39:35;;;;;;;15.55;7.85;;;;;;;-0.52;100.00;99601.75;5083434;28;20074;-80
2023/01/27 18:42:10;;;;;;;17.60;8.02;;;;;;;-0.48;100.00;99612.13;5079973;28;20083;-80
2023/01/27 18:44:37;;;;;;;22.35;7.63;;;;;;;-0.43;100.00;99601.97;5071356;28;20060;-79
2023/01/27 18:47:24;;;;;;;13.98;7.40;;;;;;;-0.41;100.00;99617.91;5082617;28;20078;-79
2023/01/27 18:49:57;;;;;;;11.32;6.80;;;;;;;-0.64;100.00;99584.75;5085395;28;20040;-79
2023/01/27 18:52:24;;;;;;;13.73;6.85;;;;;;;-0.45;100.00;99616.41;5083097;28;20059;-79
2023/01/27 18:54:54;;;;;;;13.38;7.38;;;;;;;-0.54;100.00;99600.03;5074596;28;20572;-79
2023/01/27 18:57:22;;;;;;;14.25;7.40;;;;;;;-0.55;100.00;99602.81;5088034;28;20193;-79
2023/01/27 18:59:48;;;;;;;16.40;9.25;;;;;;;-0.56;100.00;99607.31;5078957;28;20047;-79
2023/01/27 19:02:15;;;;;;;19.10;9.98;;;;;;;-0.55;100.00;99617.00;5079849;28;20054;-79
2023/01/27 19:04:43;;;;;;;15.07;8.15;;;;;;;-0.45;100.00;99608.38;5082895;28;20052;-79
2023/01/27 19:07:14;;;;;;;16.23;7.35;;;;;;;-0.58;100.00;99585.19;5080496;28;20048;-79
2023/01/27 19:09:41;;;;;;;15.43;7.03;;;;;;;-0.49;100.00;99613.09;5086579;28;20135;-79
2023/01/27 19:12:08;;;;;;;15.25;6.68;;;;;;;-0.55;100.00;99609.00;5082203;28;20052;-79
2023/01/27 19:14:35;;;;;;;16.17;7.00;;;;;;;-0.50;100.00;99613.19;5084133;28;20056;-79
2023/01/27 19:17:03;;;;;;;12.48;6.55;;;;;;;-0.66;100.00;99584.84;5083039;28;20063;-79
2023/01/27 19:19:30;;;;;;;14.65;6.65;;;;;;;-0.58;100.00;99611.88;5085673;28;20056;-79
2023/01/27 19:21:56;;;;;;;12.18;6.78;;;;;;;-0.46;100.00;99633.41;5085434;28;20044;-80
2023/01/27 19:24:23;;;;;;;11.00;6.10;;;;;;;-0.57;100.00;99621.63;5078322;28;20048;-79
2023/01/27 19:26:49;;;;;;;9.85;5.60;;;;;;;-0.67;100.00;99609.84;5076892;28;20048;-79
2023/01/27 19:29:16;;;;;;;10.45;5.78;;;;;;;-0.69;100.00;99600.22;5083003;28;20044;-79
2023/01/27 19:31:44;;;;;;;12.90;5.78;;;;;;;-0.68;100.00;99609.94;5086380;28;20131;-79
2023/01/27 19:34:11;;;;;;;10.30;5.63;;;;;;;-0.68;100.00;99609.94;5080467;28;20189;-79
2023/01/27 19:36:42;;;;;;;11.13;5.05;;;;;;;-0.53;100.00;99630.28;5086506;28;20113;-79
2023/01/27 19:39:13;;;;;;;11.50;6.18;;;;;;;-0.72;100.00;99598.63;5079289;28;20048;-79
2023/01/27 19:41:40;;;;;;;13.43;5.85;;;;;;;-0.73;100.00;99604.91;5086341;28;20059;-79
2023/01/27 19:44:06;;;;;;;8.35;5.38;;;;;;;-0.54;100.00;99628.56;5079825;28;20040;-79
2023/01/27 19:46:34;;;;;;;13.77;5.88;;;;;;;-0.49;100.00;99638.94;5078454;28;20076;-79
2023/01/27 19:49:02;;;;;;;12.90;7.38;;;;;;;-0.66;100.00;99616.91;5075610;28;20048;-79
2023/01/27 19:51:30;;;;;;;8.85;5.63;;;;;;;-0.54;100.00;99610.72;5080021;28;20049;-79
2023/01/27 19:53:57;;;;;;;11.93;5.03;;;;;;;-0.51;100.00;99614.13;5088093;28;20051;-79
2023/01/27 19:56:24;;;;;;;11.30;6.05;;;;;;;-0.66;100.00;99618.69;5072696;28;20044;-79